메인 페이지
METAR-TAF:

METAR-TAF

공항 :

우수아이아, 아르헨티나

위도: 54-48S, 경도: 068-19W, 고도: 16m

현재 날씨관측

예보는 53분 전, 16:00시(UTC)에 발표되었습니다.
남서16kt
온도 12°C
습도 88%
기압 989 hPa
시정 10km 이상
고도 2000ft 상공 구름 조금
고도 3500ft 상공 구름 많음
시계 내 소나기

METAR: SAWH 261600Z 23016KT 9999 VCSH FEW020 BKN035 12/10 Q0989 REDZ

시각: 13:53 (16:53 UTC)

예보

예보는 5 시간 53분 전, 11:00시(UTC)에 발표되었습니다.
예보 대상 시간: 26일 12시부터 27일 12시까지 (UTC)
남서20kt
시정 10km 이상
고도 3000ft 상공 구름 보통
고도 9000ft 상공 구름 보통
전환 중
26일 15시부터 26일 17시까지 (UTC)
고도 3000ft 상공 구름 많음
약한비
전환 중
26일 19시부터 26일 21시까지 (UTC)
남서25kt, 순간 최대 풍속 35kt
고도 2500ft 상공 구름 많음
고도 5000ft 상공 흐림
전환 중
27일 06시부터 27일 08시까지 (UTC)
시정: 5000m
고도 2000ft 상공 구름 많음
고도 5000ft 상공 흐림

TAF: SAWH 261100Z 2612/2712 23020KT 9999 SCT030 SCT090 TX15/2619Z TN04/2710Z BECMG 2615/2617 -RA BKN030 BECMG 2619/2621 23025G35KT BKN025 OVC050 BECMG 2706/2708 5000 RA BKN020 OVC050

4,000개 이상의 공항 관측 자료 및 예보 (METAR 및 TAF 보고).

지도상에서 검색 가능한 기상관측소가 노란 점과 빨간 점으로 표시되어 있습니다.

기상관측소 명을 보려면 표시 위로 마우스를 이동하세요.

날씨 관측과 예보를 보려면 클릭하세요.

지도 변경 : 확대하려면 엑스 표시가 있는 녹색 버튼, 축소하려면 빼기 표시가 있는 녹색 버튼, 다음 페이지의 지도를 보려면 녹색 화살표를 클릭하세요.


METAR-TAF: